CheckWX is a tool to help pilots better visualize weather data.  It is not intended as a substitute for an official pre-flight weather briefing.

13:48:58 UTC

KIPT METAR
Williamsport Regional Airport
Williamsport, Pennsylvania, USA
Current

22 mins ago

KIPT 181327Z VRB04KT 10SM FEW006 SCT041 21/18 A3003 RMK AO2 T02110183
Observed
Aug-18 @ 13:27 UTC
Wind
  • Variable at 4 KTS
Visibility
10 SM
Flight Rules
VFR
Cloud Levels
  • Few at 600' AGL
  • Scattered at 4,100' AGL
Temperature
21°C / 70°F
Dewpoint
18°C / 64°F
Humidity
83%
Altimeter
30.03" Hg
Pressure
1016.92 hPa
Previous

29 mins ago

KIPT 181320Z VRB04KT 10SM BKN006 21/18 A3004 RMK AO2 T02110183
Observed
Aug-18 @ 13:20 UTC
Wind
  • Variable at 4 KTS
Visibility
10 SM
Flight Rules
IFR
Cloud Levels
  • Broken at 600' AGL
Temperature
21°C / 70°F
Dewpoint
18°C / 64°F
Humidity
83%
Altimeter
30.04" Hg
Pressure
1017.32 hPa
Previous

43 mins ago

KIPT 181306Z 00000KT 9SM BKN005 21/18 A3003 RMK AO2 T02060183
Observed
Aug-18 @ 13:06 UTC
Visibility
9 SM
Flight Rules
IFR
Cloud Levels
  • Broken at 500' AGL
Temperature
21°C / 70°F
Dewpoint
18°C / 64°F
Humidity
83%
Altimeter
30.03" Hg
Pressure
1016.92 hPa